Jequeri, Brazil
Current Conditions -  °F | °C
As of 2:00 PM on Sunday 23 Nov 2014 (Local Time) from SBBQ Reporting Station
Broken Clouds Broken Clouds  
Wind Chill: 81°   Ceiling: 3500
Heat Index: 82°   Visibility: 6mi
Dew Point: 64°   Wind: 7mph
Humidity: 58%   Direction: 270°W
Pressure: 30.06"   Gusts: NA
Location:  20.46°S, 42.67°W
Report Text: SBBQ 231600Z 27006KT 9999 BKN035 SCT100 27/18 Q1018
Loading
Personal Weather Stations






























Interactive Weather Map New forecast layout! Learn more

10-Day Weather Forecast

Advertisements
Track Severe Weather on mobile